Terminal Aerodrome Forecast
Issued by NWS Bismarck, ND

Home | Current Version | Previous Version | Graphics & Text | Print | Product List | Glossary On
Versions: 1 2 3 4 5 6 7 8 9 10 11 12 13 14 15 16
000
FTUS43 KBIS 132339
TAFBIS
TAF
KBIS 132339Z 1400/1424 13012KT P6SM FEW090 SCT250
     FM140600 10004KT P6SM SCT090 BKN110 WS020/17030KT
     FM140700 10004KT P6SM SCT090 BKN100
     FM141100 05004KT P6SM VCSH SCT080 BKN150
     FM141500 36008KT P6SM VCSH SCT070 BKN150
     FM141800 35014KT P6SM SCT070 BKN150=

USA.gov is the U.S. government's official web portal to all federal, state and local government web resources and services.